sensor_id;sensor_type;location;lat;lon;timestamp;temperature;humidity
13697;DHT22;6920;50.080;8.226;2023-05-10T00:02:13;13.60;99.90
13697;DHT22;6920;50.080;8.226;2023-05-10T00:04:52;13.60;99.90
13697;DHT22;6920;50.080;8.226;2023-05-10T00:07:22;13.60;99.90
13697;DHT22;6920;50.080;8.226;2023-05-10T00:09:54;13.50;99.90
13697;DHT22;6920;50.080;8.226;2023-05-10T00:12:53;13.50;99.90
13697;DHT22;6920;50.080;8.226;2023-05-10T00:15:46;13.50;99.90
13697;DHT22;6920;50.080;8.226;2023-05-10T00:18:23;13.60;99.90
13697;DHT22;6920;50.080;8.226;2023-05-10T00:20:59;13.50;99.90
13697;DHT22;6920;50.080;8.226;2023-05-10T00:23:38;13.60;99.90
13697;DHT22;6920;50.080;8.226;2023-05-10T00:26:18;13.60;99.90
13697;DHT22;6920;50.080;8.226;2023-05-10T00:28:48;13.60;99.90
13697;DHT22;6920;50.080;8.226;2023-05-10T00:31:15;13.50;99.90
13697;DHT22;6920;50.080;8.226;2023-05-10T00:33:45;13.50;99.90
13697;DHT22;6920;50.080;8.226;2023-05-10T00:36:19;13.50;99.90
13697;DHT22;6920;50.080;8.226;2023-05-10T00:39:03;13.40;99.90
13697;DHT22;6920;50.080;8.226;2023-05-10T00:41:33;13.40;99.90
13697;DHT22;6920;50.080;8.226;2023-05-10T00:44:00;13.40;99.90
13697;DHT22;6920;50.080;8.226;2023-05-10T00:46:29;13.40;99.90
13697;DHT22;6920;50.080;8.226;2023-05-10T00:49:00;13.40;99.90
13697;DHT22;6920;50.080;8.226;2023-05-10T00:51:32;13.30;99.90
13697;DHT22;6920;50.080;8.226;2023-05-10T00:54:01;13.30;99.90
13697;DHT22;6920;50.080;8.226;2023-05-10T00:56:38;13.30;99.90
13697;DHT22;6920;50.080;8.226;2023-05-10T00:59:19;13.40;99.90
13697;DHT22;6920;50.080;8.226;2023-05-10T01:01:49;13.30;99.90
13697;DHT22;6920;50.080;8.226;2023-05-10T01:04:21;13.30;99.90
13697;DHT22;6920;50.080;8.226;2023-05-10T01:06:52;13.30;99.90
13697;DHT22;6920;50.080;8.226;2023-05-10T01:09:28;13.30;99.90
13697;DHT22;6920;50.080;8.226;2023-05-10T01:12:04;13.30;99.90
13697;DHT22;6920;50.080;8.226;2023-05-10T01:14:39;13.20;99.90
13697;DHT22;6920;50.080;8.226;2023-05-10T01:17:13;13.20;99.90
13697;DHT22;6920;50.080;8.226;2023-05-10T01:19:54;13.30;99.90
13697;DHT22;6920;50.080;8.226;2023-05-10T01:22:41;13.20;99.90
13697;DHT22;6920;50.080;8.226;2023-05-10T01:31:59;13.20;99.90
13697;DHT22;6920;50.080;8.226;2023-05-10T01:34:40;13.20;99.90
13697;DHT22;6920;50.080;8.226;2023-05-10T01:37:17;13.20;99.90
13697;DHT22;6920;50.080;8.226;2023-05-10T01:39:58;13.20;99.90
13697;DHT22;6920;50.080;8.226;2023-05-10T01:42:33;13.20;99.90
13697;DHT22;6920;50.080;8.226;2023-05-10T01:45:14;13.10;99.90
13697;DHT22;6920;50.080;8.226;2023-05-10T01:47:52;13.20;99.90
13697;DHT22;6920;50.080;8.226;2023-05-10T01:50:24;13.20;99.90
13697;DHT22;6920;50.080;8.226;2023-05-10T01:52:59;13.20;99.90
13697;DHT22;6920;50.080;8.226;2023-05-10T01:55:34;13.10;99.90
13697;DHT22;6920;50.080;8.226;2023-05-10T01:58:05;13.20;99.90
13697;DHT22;6920;50.080;8.226;2023-05-10T02:00:35;13.20;99.90
13697;DHT22;6920;50.080;8.226;2023-05-10T02:03:08;13.20;99.90
13697;DHT22;6920;50.080;8.226;2023-05-10T02:05:37;13.30;99.90
13697;DHT22;6920;50.080;8.226;2023-05-10T02:08:19;13.30;99.90
13697;DHT22;6920;50.080;8.226;2023-05-10T02:10:51;13.30;99.90
13697;DHT22;6920;50.080;8.226;2023-05-10T02:13:26;13.30;99.90
13697;DHT22;6920;50.080;8.226;2023-05-10T02:15:55;13.30;99.90
13697;DHT22;6920;50.080;8.226;2023-05-10T02:18:27;13.30;99.90
13697;DHT22;6920;50.080;8.226;2023-05-10T02:20:56;13.20;99.90
13697;DHT22;6920;50.080;8.226;2023-05-10T02:23:26;13.20;99.90
13697;DHT22;6920;50.080;8.226;2023-05-10T02:25:54;13.20;99.90
13697;DHT22;6920;50.080;8.226;2023-05-10T02:28:24;13.10;99.90
13697;DHT22;6920;50.080;8.226;2023-05-10T02:31:00;13.10;99.90
13697;DHT22;6920;50.080;8.226;2023-05-10T02:33:32;13.10;99.90
13697;DHT22;6920;50.080;8.226;2023-05-10T02:36:02;13.10;99.90
13697;DHT22;6920;50.080;8.226;2023-05-10T02:38:31;13.10;99.90
13697;DHT22;6920;50.080;8.226;2023-05-10T02:41:02;13.10;99.90
13697;DHT22;6920;50.080;8.226;2023-05-10T02:43:32;13.10;99.90
13697;DHT22;6920;50.080;8.226;2023-05-10T02:46:00;13.10;99.90
13697;DHT22;6920;50.080;8.226;2023-05-10T02:48:30;13.10;99.90
13697;DHT22;6920;50.080;8.226;2023-05-10T02:51:04;13.10;99.90
13697;DHT22;6920;50.080;8.226;2023-05-10T02:53:35;13.10;99.90
13697;DHT22;6920;50.080;8.226;2023-05-10T02:56:12;13.10;99.90
13697;DHT22;6920;50.080;8.226;2023-05-10T02:58:41;13.10;99.90
13697;DHT22;6920;50.080;8.226;2023-05-10T03:01:09;13.10;99.90
13697;DHT22;6920;50.080;8.226;2023-05-10T03:03:37;13.10;99.90
13697;DHT22;6920;50.080;8.226;2023-05-10T03:06:06;13.10;99.90
13697;DHT22;6920;50.080;8.226;2023-05-10T03:08:33;13.10;99.90
13697;DHT22;6920;50.080;8.226;2023-05-10T03:11:22;13.20;99.90
13697;DHT22;6920;50.080;8.226;2023-05-10T03:14:13;13.20;99.90
13697;DHT22;6920;50.080;8.226;2023-05-10T03:16:50;12.60;99.90
13697;DHT22;6920;50.080;8.226;2023-05-10T03:19:27;13.20;99.90
13697;DHT22;6920;50.080;8.226;2023-05-10T03:22:02;13.20;99.90
13697;DHT22;6920;50.080;8.226;2023-05-10T03:24:34;13.20;99.90
13697;DHT22;6920;50.080;8.226;2023-05-10T03:27:04;13.20;99.90
13697;DHT22;6920;50.080;8.226;2023-05-10T03:29:33;13.20;99.90
13697;DHT22;6920;50.080;8.226;2023-05-10T03:32:01;13.20;99.90
13697;DHT22;6920;50.080;8.226;2023-05-10T03:34:30;13.20;99.90
13697;DHT22;6920;50.080;8.226;2023-05-10T03:41:53;13.20;99.90
13697;DHT22;6920;50.080;8.226;2023-05-10T03:44:24;13.10;99.90
13697;DHT22;6920;50.080;8.226;2023-05-10T03:46:51;13.30;99.90
13697;DHT22;6920;50.080;8.226;2023-05-10T03:49:22;13.20;99.90
13697;DHT22;6920;50.080;8.226;2023-05-10T03:51:50;13.20;99.90
13697;DHT22;6920;50.080;8.226;2023-05-10T03:54:18;13.20;99.90
13697;DHT22;6920;50.080;8.226;2023-05-10T03:56:47;13.20;99.90
13697;DHT22;6920;50.080;8.226;2023-05-10T03:59:14;13.20;99.90
13697;DHT22;6920;50.080;8.226;2023-05-10T04:01:46;13.30;99.90
13697;DHT22;6920;50.080;8.226;2023-05-10T04:04:15;13.30;99.90
13697;DHT22;6920;50.080;8.226;2023-05-10T04:06:46;13.20;99.90
13697;DHT22;6920;50.080;8.226;2023-05-10T04:09:17;13.20;99.90
13697;DHT22;6920;50.080;8.226;2023-05-10T04:11:48;13.20;99.90
13697;DHT22;6920;50.080;8.226;2023-05-10T04:14:24;13.10;99.90
13697;DHT22;6920;50.080;8.226;2023-05-10T04:16:53;13.20;99.90
13697;DHT22;6920;50.080;8.226;2023-05-10T04:19:24;13.20;99.90
13697;DHT22;6920;50.080;8.226;2023-05-10T04:21:54;13.20;99.90
13697;DHT22;6920;50.080;8.226;2023-05-10T04:24:29;13.20;99.90
13697;DHT22;6920;50.080;8.226;2023-05-10T04:27:00;13.20;99.90
13697;DHT22;6920;50.080;8.226;2023-05-10T04:29:31;13.10;99.90
13697;DHT22;6920;50.080;8.226;2023-05-10T04:32:02;13.10;99.90
13697;DHT22;6920;50.080;8.226;2023-05-10T04:34:29;13.10;99.90
13697;DHT22;6920;50.080;8.226;2023-05-10T04:36:59;13.00;99.90
13697;DHT22;6920;50.080;8.226;2023-05-10T04:39:33;13.10;99.90
13697;DHT22;6920;50.080;8.226;2023-05-10T04:42:04;13.10;99.90
13697;DHT22;6920;50.080;8.226;2023-05-10T04:44:41;13.10;99.90
13697;DHT22;6920;50.080;8.226;2023-05-10T04:47:14;13.20;99.90
13697;DHT22;6920;50.080;8.226;2023-05-10T04:49:45;13.20;99.90
13697;DHT22;6920;50.080;8.226;2023-05-10T04:52:16;13.20;99.90
13697;DHT22;6920;50.080;8.226;2023-05-10T04:54:46;13.20;99.90
13697;DHT22;6920;50.080;8.226;2023-05-10T04:57:19;13.20;99.90
13697;DHT22;6920;50.080;8.226;2023-05-10T04:59:55;13.20;99.90
13697;DHT22;6920;50.080;8.226;2023-05-10T05:02:24;13.20;99.90
13697;DHT22;6920;50.080;8.226;2023-05-10T05:04:57;13.20;99.90
13697;DHT22;6920;50.080;8.226;2023-05-10T05:07:26;13.20;99.90
13697;DHT22;6920;50.080;8.226;2023-05-10T05:09:58;13.20;99.90
13697;DHT22;6920;50.080;8.226;2023-05-10T05:12:32;13.20;99.90
13697;DHT22;6920;50.080;8.226;2023-05-10T05:15:01;13.20;99.90
13697;DHT22;6920;50.080;8.226;2023-05-10T05:17:31;13.20;99.90
13697;DHT22;6920;50.080;8.226;2023-05-10T05:20:03;13.20;99.90
13697;DHT22;6920;50.080;8.226;2023-05-10T05:22:32;13.20;99.90
13697;DHT22;6920;50.080;8.226;2023-05-10T05:25:11;13.20;99.90
13697;DHT22;6920;50.080;8.226;2023-05-10T05:27:39;13.30;99.90
13697;DHT22;6920;50.080;8.226;2023-05-10T05:30:10;13.30;99.90
13697;DHT22;6920;50.080;8.226;2023-05-10T05:32:40;13.40;99.90
13697;DHT22;6920;50.080;8.226;2023-05-10T05:35:09;13.50;99.90
13697;DHT22;6920;50.080;8.226;2023-05-10T05:37:38;13.50;99.90
13697;DHT22;6920;50.080;8.226;2023-05-10T05:40:11;13.60;99.90
13697;DHT22;6920;50.080;8.226;2023-05-10T05:42:40;13.60;99.90
13697;DHT22;6920;50.080;8.226;2023-05-10T05:45:16;13.60;99.90
13697;DHT22;6920;50.080;8.226;2023-05-10T05:47:46;13.60;99.90
13697;DHT22;6920;50.080;8.226;2023-05-10T05:50:22;13.60;99.90
13697;DHT22;6920;50.080;8.226;2023-05-10T05:52:52;13.60;99.90
13697;DHT22;6920;50.080;8.226;2023-05-10T05:55:24;13.70;99.90
13697;DHT22;6920;50.080;8.226;2023-05-10T05:58:05;13.70;99.90
13697;DHT22;6920;50.080;8.226;2023-05-10T06:00:36;13.80;99.90
13697;DHT22;6920;50.080;8.226;2023-05-10T06:03:08;13.90;99.90
13697;DHT22;6920;50.080;8.226;2023-05-10T06:05:37;14.00;99.90
13697;DHT22;6920;50.080;8.226;2023-05-10T06:08:07;14.00;99.90
13697;DHT22;6920;50.080;8.226;2023-05-10T06:10:40;14.10;99.90
13697;DHT22;6920;50.080;8.226;2023-05-10T06:13:23;14.20;99.90
13697;DHT22;6920;50.080;8.226;2023-05-10T06:16:01;14.30;99.90
13697;DHT22;6920;50.080;8.226;2023-05-10T06:18:29;14.40;99.90
13697;DHT22;6920;50.080;8.226;2023-05-10T06:20:57;14.50;99.90
13697;DHT22;6920;50.080;8.226;2023-05-10T06:23:27;14.80;99.90
13697;DHT22;6920;50.080;8.226;2023-05-10T06:26:04;15.10;99.90
13697;DHT22;6920;50.080;8.226;2023-05-10T06:28:34;15.20;99.90
13697;DHT22;6920;50.080;8.226;2023-05-10T06:33:34;15.20;99.90
13697;DHT22;6920;50.080;8.226;2023-05-10T06:36:16;15.10;99.90
13697;DHT22;6920;50.080;8.226;2023-05-10T06:38:45;15.10;99.90
13697;DHT22;6920;50.080;8.226;2023-05-10T06:41:23;15.20;99.90
13697;DHT22;6920;50.080;8.226;2023-05-10T06:43:55;15.20;99.90
13697;DHT22;6920;50.080;8.226;2023-05-10T06:46:40;15.10;99.90
13697;DHT22;6920;50.080;8.226;2023-05-10T06:49:10;15.20;99.90
13697;DHT22;6920;50.080;8.226;2023-05-10T06:51:40;15.10;99.90
13697;DHT22;6920;50.080;8.226;2023-05-10T06:54:08;15.20;99.90
13697;DHT22;6920;50.080;8.226;2023-05-10T06:56:46;15.40;99.90
13697;DHT22;6920;50.080;8.226;2023-05-10T06:59:16;15.40;99.90
13697;DHT22;6920;50.080;8.226;2023-05-10T07:01:46;15.70;99.90
13697;DHT22;6920;50.080;8.226;2023-05-10T07:04:16;16.00;99.90
13697;DHT22;6920;50.080;8.226;2023-05-10T07:06:46;16.20;99.90
13697;DHT22;6920;50.080;8.226;2023-05-10T07:09:18;16.20;99.90
13697;DHT22;6920;50.080;8.226;2023-05-10T07:11:46;16.20;99.90
13697;DHT22;6920;50.080;8.226;2023-05-10T07:14:20;16.40;99.90
13697;DHT22;6920;50.080;8.226;2023-05-10T07:16:53;16.50;99.90
13697;DHT22;6920;50.080;8.226;2023-05-10T07:19:23;16.40;99.90
13697;DHT22;6920;50.080;8.226;2023-05-10T07:22:04;16.30;99.90
13697;DHT22;6920;50.080;8.226;2023-05-10T07:24:46;16.50;99.90
13697;DHT22;6920;50.080;8.226;2023-05-10T07:27:22;16.70;99.90
13697;DHT22;6920;50.080;8.226;2023-05-10T07:29:52;16.60;99.90
13697;DHT22;6920;50.080;8.226;2023-05-10T07:32:22;16.60;99.90
13697;DHT22;6920;50.080;8.226;2023-05-10T07:34:49;16.40;99.90
13697;DHT22;6920;50.080;8.226;2023-05-10T07:37:17;16.40;99.90
13697;DHT22;6920;50.080;8.226;2023-05-10T07:39:46;16.20;99.90
13697;DHT22;6920;50.080;8.226;2023-05-10T07:42:14;16.10;99.90
13697;DHT22;6920;50.080;8.226;2023-05-10T07:44:45;16.10;99.90
13697;DHT22;6920;50.080;8.226;2023-05-10T07:47:18;16.10;99.90
13697;DHT22;6920;50.080;8.226;2023-05-10T07:49:46;15.90;99.90
13697;DHT22;6920;50.080;8.226;2023-05-10T07:52:15;15.80;99.90
13697;DHT22;6920;50.080;8.226;2023-05-10T07:54:47;15.80;99.90
13697;DHT22;6920;50.080;8.226;2023-05-10T07:57:18;15.80;99.90
13697;DHT22;6920;50.080;8.226;2023-05-10T07:59:58;15.80;99.90
13697;DHT22;6920;50.080;8.226;2023-05-10T08:02:26;15.80;99.90
13697;DHT22;6920;50.080;8.226;2023-05-10T08:04:55;15.80;99.90
13697;DHT22;6920;50.080;8.226;2023-05-10T08:07:24;15.90;99.90
13697;DHT22;6920;50.080;8.226;2023-05-10T08:10:09;15.80;99.90
13697;DHT22;6920;50.080;8.226;2023-05-10T08:12:42;15.70;99.90
13697;DHT22;6920;50.080;8.226;2023-05-10T08:15:20;15.80;99.90
13697;DHT22;6920;50.080;8.226;2023-05-10T08:17:50;15.90;99.90
13697;DHT22;6920;50.080;8.226;2023-05-10T08:20:22;16.00;99.90
13697;DHT22;6920;50.080;8.226;2023-05-10T08:22:51;16.20;99.90
13697;DHT22;6920;50.080;8.226;2023-05-10T08:25:21;16.30;99.90
13697;DHT22;6920;50.080;8.226;2023-05-10T08:27:53;16.50;99.90
13697;DHT22;6920;50.080;8.226;2023-05-10T08:30:35;16.60;99.90
13697;DHT22;6920;50.080;8.226;2023-05-10T08:33:05;16.50;99.90
13697;DHT22;6920;50.080;8.226;2023-05-10T08:35:49;16.20;99.90
13697;DHT22;6920;50.080;8.226;2023-05-10T08:38:22;16.70;99.90
13697;DHT22;6920;50.080;8.226;2023-05-10T08:41:00;16.80;99.90
13697;DHT22;6920;50.080;8.226;2023-05-10T08:43:30;16.90;99.90
13697;DHT22;6920;50.080;8.226;2023-05-10T08:46:06;17.00;99.90
13697;DHT22;6920;50.080;8.226;2023-05-10T08:48:42;17.20;99.90
13697;DHT22;6920;50.080;8.226;2023-05-10T08:51:17;17.20;99.90
13697;DHT22;6920;50.080;8.226;2023-05-10T08:54:04;16.70;99.90
13697;DHT22;6920;50.080;8.226;2023-05-10T08:56:42;16.70;99.90
13697;DHT22;6920;50.080;8.226;2023-05-10T08:59:13;16.70;99.90
13697;DHT22;6920;50.080;8.226;2023-05-10T09:01:58;16.70;99.90
13697;DHT22;6920;50.080;8.226;2023-05-10T09:04:36;16.50;99.90
13697;DHT22;6920;50.080;8.226;2023-05-10T09:07:17;16.50;99.90
13697;DHT22;6920;50.080;8.226;2023-05-10T09:09:52;16.50;99.90
13697;DHT22;6920;50.080;8.226;2023-05-10T09:12:25;16.60;99.90
13697;DHT22;6920;50.080;8.226;2023-05-10T09:15:11;16.90;99.90
13697;DHT22;6920;50.080;8.226;2023-05-10T09:17:59;17.40;99.90
13697;DHT22;6920;50.080;8.226;2023-05-10T09:20:36;17.90;99.90
13697;DHT22;6920;50.080;8.226;2023-05-10T09:23:13;17.80;99.90
13697;DHT22;6920;50.080;8.226;2023-05-10T09:25:44;17.80;99.90
13697;DHT22;6920;50.080;8.226;2023-05-10T09:28:11;18.20;99.90
13697;DHT22;6920;50.080;8.226;2023-05-10T09:30:39;18.60;99.90
13697;DHT22;6920;50.080;8.226;2023-05-10T09:35:38;18.40;99.90
13697;DHT22;6920;50.080;8.226;2023-05-10T09:38:06;17.90;99.90
13697;DHT22;6920;50.080;8.226;2023-05-10T09:40:35;17.20;99.90
13697;DHT22;6920;50.080;8.226;2023-05-10T09:43:06;17.20;99.90
13697;DHT22;6920;50.080;8.226;2023-05-10T09:45:41;16.00;99.90
13697;DHT22;6920;50.080;8.226;2023-05-10T09:48:12;15.70;99.90
13697;DHT22;6920;50.080;8.226;2023-05-10T09:50:42;15.60;99.90
13697;DHT22;6920;50.080;8.226;2023-05-10T09:53:14;15.70;99.90
13697;DHT22;6920;50.080;8.226;2023-05-10T09:55:44;15.80;99.90
13697;DHT22;6920;50.080;8.226;2023-05-10T09:58:13;16.00;99.90
13697;DHT22;6920;50.080;8.226;2023-05-10T10:00:41;16.40;99.90
13697;DHT22;6920;50.080;8.226;2023-05-10T10:03:18;16.60;99.90
13697;DHT22;6920;50.080;8.226;2023-05-10T10:05:51;16.90;99.90
13697;DHT22;6920;50.080;8.226;2023-05-10T10:08:25;17.00;99.90
13697;DHT22;6920;50.080;8.226;2023-05-10T10:10:54;16.70;99.90
13697;DHT22;6920;50.080;8.226;2023-05-10T10:13:23;16.70;99.90
13697;DHT22;6920;50.080;8.226;2023-05-10T10:15:50;16.90;99.90
13697;DHT22;6920;50.080;8.226;2023-05-10T10:18:21;17.00;99.90
13697;DHT22;6920;50.080;8.226;2023-05-10T10:20:57;17.00;99.90
13697;DHT22;6920;50.080;8.226;2023-05-10T10:23:36;17.10;99.90
13697;DHT22;6920;50.080;8.226;2023-05-10T10:26:07;17.20;99.90
13697;DHT22;6920;50.080;8.226;2023-05-10T10:28:40;17.60;99.90
13697;DHT22;6920;50.080;8.226;2023-05-10T10:31:23;18.30;99.90
13697;DHT22;6920;50.080;8.226;2023-05-10T10:34:05;18.70;99.90
13697;DHT22;6920;50.080;8.226;2023-05-10T10:36:54;18.70;99.90
13697;DHT22;6920;50.080;8.226;2023-05-10T10:39:53;18.50;99.90
13697;DHT22;6920;50.080;8.226;2023-05-10T10:42:45;18.40;99.90
13697;DHT22;6920;50.080;8.226;2023-05-10T10:45:17;18.40;99.90
13697;DHT22;6920;50.080;8.226;2023-05-10T10:47:47;18.30;99.90
13697;DHT22;6920;50.080;8.226;2023-05-10T10:50:17;18.20;99.90
13697;DHT22;6920;50.080;8.226;2023-05-10T10:52:52;18.30;99.90
13697;DHT22;6920;50.080;8.226;2023-05-10T10:55:20;18.30;99.90
13697;DHT22;6920;50.080;8.226;2023-05-10T10:57:53;18.20;99.90
13697;DHT22;6920;50.080;8.226;2023-05-10T11:00:29;18.20;99.90
13697;DHT22;6920;50.080;8.226;2023-05-10T11:03:00;18.20;99.90
13697;DHT22;6920;50.080;8.226;2023-05-10T11:05:38;18.30;99.90
13697;DHT22;6920;50.080;8.226;2023-05-10T11:08:17;18.40;99.90
13697;DHT22;6920;50.080;8.226;2023-05-10T11:11:05;18.70;99.90
13697;DHT22;6920;50.080;8.226;2023-05-10T11:13:43;18.70;99.90
13697;DHT22;6920;50.080;8.226;2023-05-10T11:16:11;18.60;99.90
13697;DHT22;6920;50.080;8.226;2023-05-10T11:18:39;18.80;99.90
13697;DHT22;6920;50.080;8.226;2023-05-10T11:21:08;18.70;99.90
13697;DHT22;6920;50.080;8.226;2023-05-10T11:23:56;18.60;99.90
13697;DHT22;6920;50.080;8.226;2023-05-10T11:26:37;18.70;99.90
13697;DHT22;6920;50.080;8.226;2023-05-10T11:29:11;18.60;99.90
13697;DHT22;6920;50.080;8.226;2023-05-10T11:31:43;18.70;99.90
13697;DHT22;6920;50.080;8.226;2023-05-10T11:34:22;18.70;99.90
13697;DHT22;6920;50.080;8.226;2023-05-10T11:36:56;18.40;99.90
13697;DHT22;6920;50.080;8.226;2023-05-10T11:39:38;18.30;99.90
13697;DHT22;6920;50.080;8.226;2023-05-10T11:42:12;18.40;99.90
13697;DHT22;6920;50.080;8.226;2023-05-10T11:44:44;18.80;99.90
13697;DHT22;6920;50.080;8.226;2023-05-10T11:47:15;19.20;99.90
13697;DHT22;6920;50.080;8.226;2023-05-10T11:49:43;19.50;99.90
13697;DHT22;6920;50.080;8.226;2023-05-10T11:52:12;19.70;99.90
13697;DHT22;6920;50.080;8.226;2023-05-10T11:54:53;19.70;99.90
13697;DHT22;6920;50.080;8.226;2023-05-10T11:57:27;19.60;99.90
13697;DHT22;6920;50.080;8.226;2023-05-10T11:59:57;19.60;99.90
13697;DHT22;6920;50.080;8.226;2023-05-10T12:02:30;19.50;99.90
13697;DHT22;6920;50.080;8.226;2023-05-10T12:04:58;19.40;99.90
13697;DHT22;6920;50.080;8.226;2023-05-10T12:07:30;20.00;99.90
13697;DHT22;6920;50.080;8.226;2023-05-10T12:10:12;19.50;99.90
13697;DHT22;6920;50.080;8.226;2023-05-10T12:12:52;19.30;99.90
13697;DHT22;6920;50.080;8.226;2023-05-10T12:15:20;19.20;99.90
13697;DHT22;6920;50.080;8.226;2023-05-10T12:17:57;19.20;99.90
13697;DHT22;6920;50.080;8.226;2023-05-10T12:20:28;19.10;99.90
13697;DHT22;6920;50.080;8.226;2023-05-10T12:22:58;19.00;99.90
13697;DHT22;6920;50.080;8.226;2023-05-10T12:25:33;19.10;99.90
13697;DHT22;6920;50.080;8.226;2023-05-10T12:28:04;19.20;99.90
13697;DHT22;6920;50.080;8.226;2023-05-10T12:30:33;19.10;99.90
13697;DHT22;6920;50.080;8.226;2023-05-10T12:33:02;19.10;99.90
13697;DHT22;6920;50.080;8.226;2023-05-10T12:35:43;19.00;99.90
13697;DHT22;6920;50.080;8.226;2023-05-10T12:38:35;18.90;99.90
13697;DHT22;6920;50.080;8.226;2023-05-10T12:41:08;18.80;99.90
13697;DHT22;6920;50.080;8.226;2023-05-10T12:43:43;18.70;99.90
13697;DHT22;6920;50.080;8.226;2023-05-10T12:46:14;18.70;99.90
13697;DHT22;6920;50.080;8.226;2023-05-10T12:48:45;18.70;99.90
13697;DHT22;6920;50.080;8.226;2023-05-10T12:51:21;19.00;99.90
13697;DHT22;6920;50.080;8.226;2023-05-10T12:53:52;19.10;99.90
13697;DHT22;6920;50.080;8.226;2023-05-10T12:56:22;19.20;99.90
13697;DHT22;6920;50.080;8.226;2023-05-10T12:58:52;19.20;99.90
13697;DHT22;6920;50.080;8.226;2023-05-10T13:01:23;19.00;99.90
13697;DHT22;6920;50.080;8.226;2023-05-10T13:06:21;18.90;99.90
13697;DHT22;6920;50.080;8.226;2023-05-10T13:08:52;18.90;99.90
13697;DHT22;6920;50.080;8.226;2023-05-10T13:11:23;19.00;99.90
13697;DHT22;6920;50.080;8.226;2023-05-10T13:13:51;19.00;99.90
13697;DHT22;6920;50.080;8.226;2023-05-10T13:18:57;19.40;99.90
13697;DHT22;6920;50.080;8.226;2023-05-10T13:24:06;19.70;99.90
13697;DHT22;6920;50.080;8.226;2023-05-10T13:26:34;20.00;99.90
13697;DHT22;6920;50.080;8.226;2023-05-10T13:29:07;19.90;99.90
13697;DHT22;6920;50.080;8.226;2023-05-10T13:31:37;19.90;99.90
13697;DHT22;6920;50.080;8.226;2023-05-10T13:34:07;19.80;99.90
13697;DHT22;6920;50.080;8.226;2023-05-10T13:36:38;20.00;99.90
13697;DHT22;6920;50.080;8.226;2023-05-10T13:44:24;19.90;99.90
13697;DHT22;6920;50.080;8.226;2023-05-10T13:47:00;19.80;99.90
13697;DHT22;6920;50.080;8.226;2023-05-10T13:49:32;19.70;99.90
13697;DHT22;6920;50.080;8.226;2023-05-10T13:52:03;19.40;99.90
13697;DHT22;6920;50.080;8.226;2023-05-10T13:57:17;19.30;99.90
13697;DHT22;6920;50.080;8.226;2023-05-10T14:02:29;19.60;99.90
13697;DHT22;6920;50.080;8.226;2023-05-10T14:05:04;19.50;99.90
13697;DHT22;6920;50.080;8.226;2023-05-10T14:10:04;19.80;99.90
13697;DHT22;6920;50.080;8.226;2023-05-10T14:15:21;20.00;99.90
13697;DHT22;6920;50.080;8.226;2023-05-10T14:20:28;19.70;99.90
13697;DHT22;6920;50.080;8.226;2023-05-10T14:28:06;19.90;99.90
13697;DHT22;6920;50.080;8.226;2023-05-10T14:30:34;19.90;99.90
13697;DHT22;6920;50.080;8.226;2023-05-10T14:33:16;19.80;99.90
13697;DHT22;6920;50.080;8.226;2023-05-10T14:35:46;19.90;99.90
13697;DHT22;6920;50.080;8.226;2023-05-10T14:38:33;20.10;99.90
13697;DHT22;6920;50.080;8.226;2023-05-10T14:41:06;20.30;99.90
13697;DHT22;6920;50.080;8.226;2023-05-10T14:43:43;20.40;99.90
13697;DHT22;6920;50.080;8.226;2023-05-10T14:46:16;20.50;99.90
13697;DHT22;6920;50.080;8.226;2023-05-10T14:49:01;20.70;99.90
13697;DHT22;6920;50.080;8.226;2023-05-10T14:51:42;20.40;99.90
13697;DHT22;6920;50.080;8.226;2023-05-10T14:54:16;20.00;99.90
13697;DHT22;6920;50.080;8.226;2023-05-10T14:56:43;20.00;99.90
13697;DHT22;6920;50.080;8.226;2023-05-10T14:59:15;19.80;99.90
13697;DHT22;6920;50.080;8.226;2023-05-10T15:01:49;19.90;99.90
13697;DHT22;6920;50.080;8.226;2023-05-10T15:04:20;20.10;99.90
13697;DHT22;6920;50.080;8.226;2023-05-10T15:06:59;20.20;99.90
13697;DHT22;6920;50.080;8.226;2023-05-10T15:09:28;19.80;99.90
13697;DHT22;6920;50.080;8.226;2023-05-10T15:12:03;19.90;99.90
13697;DHT22;6920;50.080;8.226;2023-05-10T15:14:34;20.00;99.90
13697;DHT22;6920;50.080;8.226;2023-05-10T15:17:10;20.10;99.90
13697;DHT22;6920;50.080;8.226;2023-05-10T15:19:41;20.10;99.90
13697;DHT22;6920;50.080;8.226;2023-05-10T15:22:23;20.10;99.90
13697;DHT22;6920;50.080;8.226;2023-05-10T15:24:56;20.00;99.90
13697;DHT22;6920;50.080;8.226;2023-05-10T15:27:53;19.70;99.90
13697;DHT22;6920;50.080;8.226;2023-05-10T15:30:45;19.50;99.90
13697;DHT22;6920;50.080;8.226;2023-05-10T15:33:18;19.40;99.90
13697;DHT22;6920;50.080;8.226;2023-05-10T15:35:55;19.30;99.90
13697;DHT22;6920;50.080;8.226;2023-05-10T15:38:41;19.40;99.90
13697;DHT22;6920;50.080;8.226;2023-05-10T15:41:30;19.50;99.90
13697;DHT22;6920;50.080;8.226;2023-05-10T15:44:07;19.50;99.90
13697;DHT22;6920;50.080;8.226;2023-05-10T15:46:39;19.40;99.90
13697;DHT22;6920;50.080;8.226;2023-05-10T15:49:25;19.20;99.90
13697;DHT22;6920;50.080;8.226;2023-05-10T15:51:54;19.30;99.90
13697;DHT22;6920;50.080;8.226;2023-05-10T15:54:30;19.10;99.90
13697;DHT22;6920;50.080;8.226;2023-05-10T15:57:20;19.00;99.90
13697;DHT22;6920;50.080;8.226;2023-05-10T16:00:03;19.10;99.90
13697;DHT22;6920;50.080;8.226;2023-05-10T16:02:57;19.00;99.90
13697;DHT22;6920;50.080;8.226;2023-05-10T16:05:42;19.00;99.90
13697;DHT22;6920;50.080;8.226;2023-05-10T16:13:09;18.90;99.90
13697;DHT22;6920;50.080;8.226;2023-05-10T16:15:39;19.00;99.90
13697;DHT22;6920;50.080;8.226;2023-05-10T16:18:42;18.90;99.90
13697;DHT22;6920;50.080;8.226;2023-05-10T16:21:17;18.90;99.90
13697;DHT22;6920;50.080;8.226;2023-05-10T16:23:46;18.90;99.90
13697;DHT22;6920;50.080;8.226;2023-05-10T16:26:17;19.00;99.90
13697;DHT22;6920;50.080;8.226;2023-05-10T16:28:47;19.00;99.90
13697;DHT22;6920;50.080;8.226;2023-05-10T16:31:15;19.00;99.90
13697;DHT22;6920;50.080;8.226;2023-05-10T16:33:48;18.90;99.90
13697;DHT22;6920;50.080;8.226;2023-05-10T16:36:20;18.80;99.90
13697;DHT22;6920;50.080;8.226;2023-05-10T16:38:52;18.80;99.90
13697;DHT22;6920;50.080;8.226;2023-05-10T16:41:34;18.70;99.90
13697;DHT22;6920;50.080;8.226;2023-05-10T16:44:01;18.60;99.90
13697;DHT22;6920;50.080;8.226;2023-05-10T16:46:29;18.70;99.90
13697;DHT22;6920;50.080;8.226;2023-05-10T16:49:12;18.60;99.90
13697;DHT22;6920;50.080;8.226;2023-05-10T16:51:40;18.60;99.90
13697;DHT22;6920;50.080;8.226;2023-05-10T16:54:18;18.60;99.90
13697;DHT22;6920;50.080;8.226;2023-05-10T16:57:04;18.60;99.90
13697;DHT22;6920;50.080;8.226;2023-05-10T16:59:37;18.50;99.90
13697;DHT22;6920;50.080;8.226;2023-05-10T17:02:25;18.40;99.90
13697;DHT22;6920;50.080;8.226;2023-05-10T17:05:03;18.50;99.90
13697;DHT22;6920;50.080;8.226;2023-05-10T17:07:48;18.50;99.90
13697;DHT22;6920;50.080;8.226;2023-05-10T17:10:22;18.50;99.90
13697;DHT22;6920;50.080;8.226;2023-05-10T17:12:51;18.50;99.90
13697;DHT22;6920;50.080;8.226;2023-05-10T17:15:21;18.50;99.90
13697;DHT22;6920;50.080;8.226;2023-05-10T17:18:20;18.60;99.90
13697;DHT22;6920;50.080;8.226;2023-05-10T17:21:08;18.50;99.90